Airfield :
LOGIN :

Register | Disclaimer

   EN    FR    IT 

 










Legend :    VFR   Marginal VFR   IFR   Intensive IFR   Very Intensive IFR
Visi :
Ceiling :
>= 8 km
>= 3000ft
5 to 8 km
1000 to 3000 ft
1500m to 5 km
500 to 1000 ft
800 to 1500m
200 to 500 ft
< 800m
< 200 ft
Symbols :   Thunderstorms  Fog  Heavy snow  Heavy precipitations  Wind > 20 kt
SIGMETs :     Misc.  Thunderstorms  Icing  Turbulence  Mountain Waves  Volcanic Ashes







- Airport Elevation : 46 ft
- IATA code : PAF


LPMT - Montijo Air Base

CURRENT METAR :
  • 181800Z 02014KT 9999 BKN045 11/09 Q1017

EXPIRED METARs :
  • 181700Z 01014KT 9999 FEW030 BKN045 12/09 Q1017
  • 181600Z 01015KT 9999 SCT017 BKN035 12/09 Q1017

TAF TAF LPMT
Valid from the 18 at 18:00 until the 19 at 18:00 UTC


181703Z 1818/1918 01010KT 9999 FEW020 BKN035
BECMG 1900/1902 02005KT
No reported NOTAMs for that airfield.
1 SIGMET reported for the Lisboa FIR (LPPC) :
 
Severe turbulence
LPPC SIGMET 4 VALID 181500/181800 LPPT
LPPC LISBON FIR SEV TURB FCST WI N3700 W01315 - N4115 W01145 - N4030 W00900 - N3715 W01030 - N3700 W01315 FL200/320 MOV SW 10KT WKN=



MET'MAP, your aeronautical weather chart ! - Copyright ORBIFLY December 2007 - Disclaimer

ORBIFLY MET'MAP TEAM :

Programming & Development : Alexandra Zaïnal
Concept & Development : Baudouin d'Aumeries
Co-Development & Prog : Marc-Olivier Méhu
Technical & hardware support : Manuel Goepfert

Contact : metmap@orbifly.com




SOURCES & CREDITS :

   NOAA